createdAt,value
2019-03-29T00:01:12.207Z,9.60
2019-03-29T00:03:40.840Z,9.50
2019-03-29T00:06:09.406Z,9.50
2019-03-29T00:08:38.690Z,9.40
2019-03-29T00:11:07.400Z,9.40
2019-03-29T00:13:35.881Z,9.40
2019-03-29T00:16:04.489Z,9.30
2019-03-29T00:18:32.943Z,9.30
2019-03-29T00:21:01.423Z,9.20
2019-03-29T00:23:29.960Z,9.10
2019-03-29T00:25:59.108Z,9.10
2019-03-29T00:28:27.918Z,9.10
2019-03-29T00:30:56.452Z,9.10
2019-03-29T00:33:24.904Z,9.10
2019-03-29T00:35:53.751Z,9.10
2019-03-29T00:38:22.913Z,8.90
2019-03-29T00:40:51.674Z,9.00
2019-03-29T00:43:20.247Z,9.00
2019-03-29T00:45:48.717Z,9.00
2019-03-29T00:48:17.282Z,8.90
2019-03-29T00:50:45.767Z,9.00
2019-03-29T00:53:14.235Z,8.90
2019-03-29T00:55:42.737Z,8.90
2019-03-29T00:58:11.358Z,8.90
2019-03-29T01:00:39.982Z,8.90
2019-03-29T01:03:08.560Z,8.90
2019-03-29T01:05:37.090Z,8.90
2019-03-29T01:08:08.124Z,8.90
2019-03-29T01:10:35.963Z,8.90
2019-03-29T01:13:04.436Z,8.90
2019-03-29T01:15:32.955Z,8.80
2019-03-29T01:18:01.471Z,8.80
2019-03-29T01:20:29.929Z,8.80
2019-03-29T01:22:58.470Z,8.80
2019-03-29T01:25:26.916Z,8.80
2019-03-29T01:27:55.472Z,8.80
2019-03-29T01:30:23.939Z,8.70
2019-03-29T01:32:52.439Z,8.70
2019-03-29T01:35:20.947Z,8.70
2019-03-29T01:37:49.489Z,8.70
2019-03-29T01:40:18.014Z,8.70
2019-03-29T01:42:46.555Z,8.70
2019-03-29T01:45:15.263Z,8.70
2019-03-29T01:47:43.765Z,8.60
2019-03-29T01:50:12.548Z,8.50
2019-03-29T01:52:41.011Z,8.60
2019-03-29T01:55:09.819Z,8.40
2019-03-29T01:57:38.389Z,8.50
2019-03-29T02:00:09.042Z,8.50
2019-03-29T02:02:37.914Z,8.50
2019-03-29T02:05:08.012Z,8.50
2019-03-29T02:07:38.022Z,8.40
2019-03-29T02:10:09.465Z,8.30
2019-03-29T02:12:37.987Z,8.30
2019-03-29T02:15:08.113Z,8.30
2019-03-29T02:17:37.113Z,8.30
2019-03-29T02:20:07.439Z,8.30
2019-03-29T02:22:36.294Z,8.30
2019-03-29T02:25:07.506Z,8.20
2019-03-29T02:27:36.012Z,8.20
2019-03-29T02:30:08.095Z,8.20
2019-03-29T02:32:36.557Z,8.20
2019-03-29T02:35:05.780Z,8.20
2019-03-29T02:37:34.511Z,8.20
2019-03-29T02:40:03.261Z,8.20
2019-03-29T02:42:31.854Z,8.10
2019-03-29T02:45:00.636Z,8.10
2019-03-29T02:47:29.240Z,8.10
2019-03-29T02:49:57.727Z,8.00
2019-03-29T02:52:26.346Z,8.10
2019-03-29T02:54:54.895Z,8.00
2019-03-29T02:57:23.498Z,8.00
2019-03-29T02:59:51.959Z,7.90
2019-03-29T03:02:26.376Z,7.90
2019-03-29T03:04:56.735Z,7.90
2019-03-29T03:07:29.048Z,7.90
2019-03-29T03:09:59.613Z,7.90
2019-03-29T03:12:36.076Z,7.90
2019-03-29T03:15:06.588Z,7.80
2019-03-29T03:17:35.032Z,7.80
2019-03-29T03:20:14.595Z,7.80
2019-03-29T03:22:41.104Z,7.70
2019-03-29T03:25:10.029Z,7.80
2019-03-29T03:27:38.591Z,7.70
2019-03-29T03:30:12.010Z,7.70
2019-03-29T03:32:40.718Z,7.80
2019-03-29T03:35:10.571Z,7.70
2019-03-29T03:37:39.255Z,7.60
2019-03-29T03:40:09.258Z,7.60
2019-03-29T03:42:37.923Z,7.50
2019-03-29T03:45:10.317Z,7.40
2019-03-29T03:47:39.540Z,7.30
2019-03-29T03:50:10.120Z,7.30
2019-03-29T03:52:38.750Z,7.20
2019-03-29T03:55:07.269Z,7.30
2019-03-29T03:57:37.818Z,7.30
2019-03-29T04:00:08.382Z,7.30
2019-03-29T04:02:36.975Z,7.20
2019-03-29T04:05:06.881Z,7.20
2019-03-29T04:07:35.388Z,7.20
2019-03-29T04:10:05.986Z,7.20
2019-03-29T04:12:34.540Z,7.20
2019-03-29T04:15:03.049Z,7.10
2019-03-29T04:17:31.598Z,7.10
2019-03-29T04:20:00.555Z,7.10
2019-03-29T04:22:29.202Z,7.20
2019-03-29T04:24:57.779Z,7.10
2019-03-29T04:27:26.359Z,7.10
2019-03-29T04:29:54.812Z,7.10
2019-03-29T04:32:23.351Z,7.10
2019-03-29T04:34:51.897Z,7.00
2019-03-29T04:37:20.435Z,7.00
2019-03-29T04:40:05.804Z,7.00
2019-03-29T04:42:19.294Z,7.00
2019-03-29T04:44:47.847Z,7.00
2019-03-29T04:47:16.304Z,7.00
2019-03-29T04:49:44.770Z,7.10
2019-03-29T04:52:13.231Z,7.10
2019-03-29T04:54:41.725Z,7.10
2019-03-29T04:57:10.170Z,7.20
2019-03-29T04:59:38.728Z,7.20
2019-03-29T05:02:07.170Z,7.30
2019-03-29T05:04:36.779Z,7.30
2019-03-29T05:07:07.589Z,7.40
2019-03-29T05:09:36.094Z,7.50
2019-03-29T05:12:04.580Z,7.50
2019-03-29T05:14:33.209Z,7.50
2019-03-29T05:17:01.694Z,7.50
2019-03-29T05:19:30.314Z,7.50
2019-03-29T05:21:58.806Z,7.50
2019-03-29T05:24:27.283Z,7.50
2019-03-29T05:26:56.052Z,7.50
2019-03-29T05:29:24.650Z,7.50
2019-03-29T05:31:53.740Z,7.50
2019-03-29T05:34:22.378Z,7.50
2019-03-29T05:36:50.945Z,7.40
2019-03-29T05:39:19.402Z,7.30
2019-03-29T05:41:48.040Z,7.40
2019-03-29T05:44:16.555Z,7.40
2019-03-29T05:46:45.117Z,7.50
2019-03-29T05:49:13.638Z,7.40
2019-03-29T05:51:42.265Z,7.50
2019-03-29T05:54:10.792Z,7.50
2019-03-29T05:56:39.357Z,7.50
2019-03-29T05:59:07.925Z,7.50
2019-03-29T06:01:36.454Z,7.40
2019-03-29T06:04:05.008Z,7.50
2019-03-29T06:06:33.522Z,7.60
2019-03-29T06:09:02.039Z,7.60
2019-03-29T06:11:30.513Z,7.70
2019-03-29T06:13:58.987Z,7.70
2019-03-29T06:16:38.395Z,7.80
2019-03-29T06:18:57.855Z,8.00
2019-03-29T06:21:26.313Z,8.10
2019-03-29T06:23:54.788Z,8.10
2019-03-29T06:26:23.284Z,8.20
2019-03-29T06:28:51.825Z,8.30
2019-03-29T06:31:20.366Z,8.30
2019-03-29T06:33:48.830Z,8.50
2019-03-29T06:36:17.756Z,8.50
2019-03-29T06:38:48.551Z,8.60
2019-03-29T06:41:17.123Z,8.70
2019-03-29T06:43:45.858Z,8.80
2019-03-29T06:46:14.388Z,9.00
2019-03-29T06:48:42.843Z,9.00
2019-03-29T06:51:11.343Z,9.10
2019-03-29T06:53:39.825Z,9.10
2019-03-29T06:56:08.365Z,9.20
2019-03-29T06:58:36.822Z,9.30
2019-03-29T07:01:05.298Z,9.40
2019-03-29T07:03:33.758Z,9.60
2019-03-29T07:06:02.435Z,9.60
2019-03-29T07:08:30.882Z,9.70
2019-03-29T07:10:59.368Z,9.80
2019-03-29T07:13:27.934Z,9.90
2019-03-29T07:15:56.437Z,10.00
2019-03-29T07:18:25.102Z,10.10
2019-03-29T07:20:53.553Z,10.30
2019-03-29T07:23:22.051Z,10.30
2019-03-29T07:25:50.681Z,10.40
2019-03-29T07:28:19.203Z,10.50
2019-03-29T07:30:47.735Z,10.50
2019-03-29T07:33:16.199Z,10.60
2019-03-29T07:35:44.723Z,10.60
2019-03-29T07:38:13.163Z,10.70
2019-03-29T07:40:41.724Z,10.80
2019-03-29T07:43:10.239Z,10.90
2019-03-29T07:45:38.973Z,11.00
2019-03-29T07:48:07.422Z,11.10
2019-03-29T07:50:35.901Z,11.10
2019-03-29T07:53:04.560Z,11.30
2019-03-29T07:55:33.055Z,11.50
2019-03-29T07:58:01.542Z,11.60
2019-03-29T08:00:30.101Z,11.80
2019-03-29T08:02:58.859Z,12.00
2019-03-29T08:05:27.381Z,11.90
2019-03-29T08:07:55.934Z,12.00
2019-03-29T08:10:29.105Z,12.10
2019-03-29T08:12:54.741Z,12.20
2019-03-29T08:15:23.209Z,12.30
2019-03-29T08:17:51.810Z,12.30
2019-03-29T08:22:50.751Z,12.20
2019-03-29T08:25:19.286Z,12.20
2019-03-29T08:27:47.764Z,12.40
2019-03-29T08:30:16.264Z,12.50
2019-03-29T08:32:44.843Z,12.60
2019-03-29T08:35:13.537Z,12.70
2019-03-29T08:37:42.156Z,12.80
2019-03-29T08:40:10.745Z,12.90
2019-03-29T08:42:39.217Z,12.90
2019-03-29T08:45:08.213Z,13.00
2019-03-29T08:47:36.940Z,12.90
2019-03-29T08:50:07.186Z,13.00
2019-03-29T08:52:35.754Z,13.00
2019-03-29T08:55:05.979Z,13.10
2019-03-29T08:57:34.677Z,13.20
2019-03-29T09:00:03.976Z,13.30
2019-03-29T09:02:32.649Z,13.20
2019-03-29T09:05:01.156Z,13.30
2019-03-29T09:07:43.921Z,13.40
2019-03-29T09:10:01.148Z,13.40
2019-03-29T09:12:29.699Z,13.50
2019-03-29T09:14:58.183Z,13.60
2019-03-29T09:17:26.816Z,13.60
2019-03-29T09:19:55.322Z,13.70
2019-03-29T09:22:23.874Z,13.90
2019-03-29T09:24:52.455Z,13.80
2019-03-29T09:27:20.903Z,13.80
2019-03-29T09:29:49.543Z,13.90
2019-03-29T09:32:18.250Z,14.00
2019-03-29T09:35:05.395Z,14.10
2019-03-29T09:37:33.838Z,14.10
2019-03-29T09:40:02.499Z,14.20
2019-03-29T09:42:31.017Z,14.50
2019-03-29T09:44:59.583Z,14.70
2019-03-29T09:47:28.175Z,14.70
2019-03-29T09:49:56.672Z,14.70
2019-03-29T09:52:25.724Z,14.60
2019-03-29T09:54:54.253Z,14.60
2019-03-29T09:57:36.054Z,14.80
2019-03-29T09:59:53.044Z,14.90
2019-03-29T10:02:21.518Z,14.80
2019-03-29T10:04:49.969Z,14.80
2019-03-29T10:07:21.444Z,14.90
2019-03-29T10:09:49.980Z,15.10
2019-03-29T10:12:18.523Z,15.20
2019-03-29T10:14:47.199Z,15.40
2019-03-29T10:17:15.700Z,15.40
2019-03-29T10:19:44.251Z,15.50
2019-03-29T10:22:12.819Z,15.60
2019-03-29T10:24:41.315Z,15.80
2019-03-29T10:27:09.929Z,15.80
2019-03-29T10:29:38.408Z,15.80
2019-03-29T10:32:09.405Z,15.90
2019-03-29T10:34:37.637Z,15.80
2019-03-29T10:37:06.468Z,15.70
2019-03-29T10:39:35.766Z,16.00
2019-03-29T10:42:04.891Z,16.00
2019-03-29T10:44:33.410Z,16.10
2019-03-29T10:47:02.026Z,16.10
2019-03-29T10:49:30.622Z,16.00
2019-03-29T10:51:59.184Z,16.20
2019-03-29T10:54:27.815Z,16.20
2019-03-29T10:56:57.248Z,16.20
2019-03-29T10:59:27.633Z,16.40
2019-03-29T11:01:56.071Z,16.40
2019-03-29T11:04:24.524Z,16.30
2019-03-29T11:06:53.298Z,16.30
2019-03-29T11:09:21.753Z,16.30
2019-03-29T11:11:50.207Z,16.20
2019-03-29T11:14:18.695Z,16.30
2019-03-29T11:16:47.275Z,16.30
2019-03-29T11:19:15.816Z,16.50
2019-03-29T11:21:44.305Z,16.70
2019-03-29T11:24:13.024Z,16.60
2019-03-29T11:26:41.525Z,16.70
2019-03-29T11:29:10.010Z,16.80
2019-03-29T11:31:38.695Z,17.10
2019-03-29T11:34:07.261Z,17.20
2019-03-29T11:36:35.779Z,17.30
2019-03-29T11:39:06.549Z,17.30
2019-03-29T11:41:35.011Z,17.20
2019-03-29T11:44:03.490Z,17.10
2019-03-29T11:46:32.000Z,17.20
2019-03-29T11:49:00.540Z,17.20
2019-03-29T11:51:29.043Z,17.20
2019-03-29T11:53:57.565Z,17.20
2019-03-29T11:56:26.077Z,17.30
2019-03-29T11:58:54.559Z,17.30
2019-03-29T12:01:23.000Z,17.40
2019-03-29T12:03:51.569Z,17.30
2019-03-29T12:06:20.076Z,17.40
2019-03-29T12:08:48.575Z,17.20
2019-03-29T12:11:17.021Z,17.20
2019-03-29T12:13:45.852Z,17.20
2019-03-29T12:16:14.373Z,17.50
2019-03-29T12:18:42.855Z,17.60
2019-03-29T12:21:11.390Z,17.50
2019-03-29T12:23:39.995Z,17.70
2019-03-29T12:26:08.536Z,17.70
2019-03-29T12:28:37.077Z,18.00
2019-03-29T12:31:05.746Z,17.90
2019-03-29T12:33:34.331Z,17.90
2019-03-29T12:36:02.881Z,17.90
2019-03-29T12:38:31.402Z,17.70
2019-03-29T12:40:59.893Z,17.70
2019-03-29T12:43:28.334Z,17.80
2019-03-29T12:45:56.906Z,17.70
2019-03-29T12:48:25.378Z,17.60
2019-03-29T12:50:53.860Z,17.70
2019-03-29T12:53:22.370Z,17.80
2019-03-29T12:55:50.941Z,17.80
2019-03-29T12:58:19.402Z,17.90
2019-03-29T13:00:47.918Z,17.90
2019-03-29T13:03:16.603Z,17.80
2019-03-29T13:05:45.119Z,17.80
2019-03-29T13:08:13.696Z,17.90
2019-03-29T13:10:42.725Z,18.10
2019-03-29T13:13:11.448Z,17.90
2019-03-29T13:15:39.996Z,18.00
2019-03-29T13:18:08.481Z,18.00
2019-03-29T13:20:37.154Z,18.00
2019-03-29T13:23:06.034Z,18.10
2019-03-29T13:25:34.498Z,18.20
2019-03-29T13:28:03.023Z,18.30
2019-03-29T13:30:31.501Z,18.30
2019-03-29T13:33:00.071Z,18.30
2019-03-29T13:35:28.570Z,18.30
2019-03-29T13:37:57.134Z,18.40
2019-03-29T13:40:25.724Z,18.40
2019-03-29T13:42:54.191Z,18.30
2019-03-29T13:45:22.718Z,18.30
2019-03-29T13:47:51.191Z,18.30
2019-03-29T13:50:19.743Z,18.30
2019-03-29T13:52:48.187Z,18.30
2019-03-29T13:55:16.736Z,18.40
2019-03-29T13:57:45.189Z,18.40
2019-03-29T14:00:13.977Z,18.40
2019-03-29T14:02:42.533Z,18.40
2019-03-29T14:05:11.043Z,18.40
2019-03-29T14:07:39.609Z,18.60
2019-03-29T14:10:09.145Z,18.70
2019-03-29T14:12:39.033Z,18.70
2019-03-29T14:15:10.599Z,18.80
2019-03-29T14:17:39.080Z,18.60
2019-03-29T14:20:08.457Z,18.60
2019-03-29T14:22:37.014Z,18.50
2019-03-29T14:25:07.103Z,18.40
2019-03-29T14:27:35.727Z,18.60
2019-03-29T14:30:06.606Z,18.50
2019-03-29T14:32:37.880Z,18.60
2019-03-29T14:35:07.938Z,18.70
2019-03-29T14:37:36.461Z,18.70
2019-03-29T14:40:07.664Z,18.70
2019-03-29T14:42:36.344Z,18.70
2019-03-29T14:45:07.334Z,18.70
2019-03-29T14:47:41.384Z,18.70
2019-03-29T14:50:07.608Z,18.70
2019-03-29T14:52:36.205Z,18.70
2019-03-29T14:55:05.719Z,18.60
2019-03-29T14:57:34.230Z,18.70
2019-03-29T15:00:03.130Z,18.70
2019-03-29T15:02:31.771Z,18.70
2019-03-29T15:05:02.174Z,18.80
2019-03-29T15:07:30.707Z,18.90
2019-03-29T15:09:59.526Z,18.80
2019-03-29T15:12:28.057Z,18.80
2019-03-29T15:15:05.970Z,18.80
2019-03-29T15:17:26.915Z,18.80
2019-03-29T15:19:55.391Z,18.60
2019-03-29T15:22:23.949Z,18.60
2019-03-29T15:24:52.613Z,18.60
2019-03-29T15:27:22.182Z,18.70
2019-03-29T15:29:50.728Z,18.80
2019-03-29T15:32:19.339Z,18.80
2019-03-29T15:34:47.835Z,18.70
2019-03-29T15:37:16.464Z,18.60
2019-03-29T15:39:45.085Z,18.60
2019-03-29T15:42:13.633Z,18.70
2019-03-29T15:44:42.134Z,18.70
2019-03-29T15:47:10.791Z,18.70
2019-03-29T15:49:39.344Z,18.70
2019-03-29T15:52:08.019Z,18.60
2019-03-29T15:54:36.519Z,18.60
2019-03-29T15:57:05.066Z,18.60
2019-03-29T15:59:33.692Z,18.60
2019-03-29T16:02:02.186Z,18.50
2019-03-29T16:04:30.725Z,18.50
2019-03-29T16:07:00.938Z,18.60
2019-03-29T16:09:29.544Z,18.40
2019-03-29T16:11:58.145Z,18.40
2019-03-29T16:14:26.719Z,18.40
2019-03-29T16:16:55.351Z,18.40
2019-03-29T16:19:23.850Z,18.40
2019-03-29T16:21:52.385Z,18.30
2019-03-29T16:24:20.959Z,18.30
2019-03-29T16:26:49.543Z,18.40
2019-03-29T16:29:18.035Z,18.50
2019-03-29T16:31:46.546Z,18.50
2019-03-29T16:34:15.236Z,18.40
2019-03-29T16:36:43.693Z,18.40
2019-03-29T16:39:13.811Z,18.30
2019-03-29T16:41:42.278Z,18.20
2019-03-29T16:44:10.912Z,18.30
2019-03-29T16:46:39.427Z,18.20
2019-03-29T16:49:08.081Z,18.20
2019-03-29T16:51:36.999Z,18.10
2019-03-29T16:54:05.949Z,18.10
2019-03-29T16:56:34.584Z,18.10
2019-03-29T16:59:03.433Z,18.00
2019-03-29T17:01:31.993Z,18.00
2019-03-29T17:04:00.468Z,18.00
2019-03-29T17:06:28.999Z,18.00
2019-03-29T17:08:57.571Z,18.00
2019-03-29T17:11:26.148Z,18.00
2019-03-29T17:13:54.691Z,18.00
2019-03-29T17:16:30.161Z,17.90
2019-03-29T17:18:53.441Z,17.80
2019-03-29T17:21:21.931Z,17.60
2019-03-29T17:23:52.661Z,17.70
2019-03-29T17:26:20.655Z,17.70
2019-03-29T17:28:49.421Z,17.60
2019-03-29T17:31:18.496Z,17.60
2019-03-29T17:33:47.118Z,17.60
2019-03-29T17:36:15.681Z,17.50
2019-03-29T17:38:44.335Z,17.50
2019-03-29T17:41:12.872Z,17.40
2019-03-29T17:43:41.739Z,17.30
2019-03-29T17:46:16.709Z,17.30
2019-03-29T17:48:40.737Z,17.10
2019-03-29T17:51:09.336Z,17.10
2019-03-29T17:53:37.987Z,17.00
2019-03-29T17:56:06.470Z,17.00
2019-03-29T17:58:34.956Z,16.90
2019-03-29T18:01:03.495Z,16.90
2019-03-29T18:03:31.954Z,16.80
2019-03-29T18:06:00.442Z,16.70
2019-03-29T18:08:29.037Z,16.70
2019-03-29T18:10:57.569Z,16.60
2019-03-29T18:13:26.026Z,16.60
2019-03-29T18:15:54.550Z,16.50
2019-03-29T18:18:22.997Z,16.50
2019-03-29T18:20:51.803Z,16.40
2019-03-29T18:23:20.242Z,16.40
2019-03-29T18:25:48.789Z,16.30
2019-03-29T18:28:17.434Z,16.30
2019-03-29T18:30:46.243Z,16.20
2019-03-29T18:33:14.793Z,16.20
2019-03-29T18:35:43.368Z,16.20
2019-03-29T18:38:12.979Z,16.00
2019-03-29T18:40:41.611Z,16.00
2019-03-29T18:43:10.192Z,15.90
2019-03-29T18:45:41.471Z,15.90
2019-03-29T18:48:08.910Z,15.80
2019-03-29T18:50:37.480Z,15.70
2019-03-29T18:53:05.968Z,15.70
2019-03-29T18:55:34.579Z,15.60
2019-03-29T18:58:05.774Z,15.50
2019-03-29T19:00:34.447Z,15.40
2019-03-29T19:03:03.150Z,15.40
2019-03-29T19:05:32.220Z,15.30
2019-03-29T19:08:00.823Z,15.20
2019-03-29T19:10:29.430Z,15.20
2019-03-29T19:12:58.132Z,15.20
2019-03-29T19:15:26.774Z,15.20
2019-03-29T19:17:55.495Z,15.10
2019-03-29T19:20:27.845Z,15.00
2019-03-29T19:22:54.554Z,15.00
2019-03-29T19:25:23.074Z,14.90
2019-03-29T19:27:51.543Z,14.90
2019-03-29T19:30:20.584Z,14.80
2019-03-29T19:32:49.164Z,14.70
2019-03-29T19:35:17.635Z,14.70
2019-03-29T19:37:46.389Z,14.70
2019-03-29T19:40:15.075Z,14.60
2019-03-29T19:42:43.716Z,14.60
2019-03-29T19:45:12.518Z,14.50
2019-03-29T19:47:41.057Z,14.40
2019-03-29T19:50:10.079Z,14.40
2019-03-29T19:52:38.615Z,14.40
2019-03-29T19:55:07.265Z,14.30
2019-03-29T19:57:35.834Z,14.40
2019-03-29T20:00:07.847Z,14.20
2019-03-29T20:02:36.668Z,14.20
2019-03-29T20:05:08.283Z,14.10
2019-03-29T20:07:36.814Z,14.10
2019-03-29T20:10:07.551Z,14.10
2019-03-29T20:12:36.159Z,14.00
2019-03-29T20:15:06.703Z,13.90
2019-03-29T20:17:35.433Z,13.90
2019-03-29T20:20:05.853Z,13.90
2019-03-29T20:22:34.515Z,13.70
2019-03-29T20:25:03.122Z,13.60
2019-03-29T20:27:31.582Z,13.60
2019-03-29T20:30:00.315Z,13.50
2019-03-29T20:32:28.934Z,13.50
2019-03-29T20:34:57.379Z,13.40
2019-03-29T20:37:25.939Z,13.30
2019-03-29T20:39:54.487Z,13.30
2019-03-29T20:42:24.911Z,13.20
2019-03-29T20:44:53.401Z,13.20
2019-03-29T20:47:22.031Z,13.20
2019-03-29T20:49:50.573Z,13.10
2019-03-29T20:52:19.060Z,13.20
2019-03-29T20:54:47.546Z,13.10
2019-03-29T20:57:16.159Z,13.20
2019-03-29T20:59:44.695Z,13.10
2019-03-29T21:02:13.258Z,13.10
2019-03-29T21:04:41.703Z,13.10
2019-03-29T21:07:10.274Z,13.10
2019-03-29T21:09:38.799Z,13.00
2019-03-29T21:12:07.395Z,13.00
2019-03-29T21:14:35.969Z,13.10
2019-03-29T21:17:04.596Z,13.00
2019-03-29T21:19:33.147Z,13.00
2019-03-29T21:22:01.614Z,12.90
2019-03-29T21:24:30.138Z,12.90
2019-03-29T21:26:58.622Z,12.90
2019-03-29T21:29:27.299Z,12.90
2019-03-29T21:31:55.844Z,12.80
2019-03-29T21:34:24.405Z,12.70
2019-03-29T21:36:52.975Z,12.70
2019-03-29T21:39:21.759Z,12.70
2019-03-29T21:41:50.484Z,12.70
2019-03-29T21:44:19.142Z,12.80
2019-03-29T21:46:47.809Z,12.80
2019-03-29T21:49:16.561Z,12.70
2019-03-29T21:51:45.122Z,12.70
2019-03-29T21:54:13.702Z,12.70
2019-03-29T21:56:42.503Z,12.70
2019-03-29T21:59:11.046Z,12.60
2019-03-29T22:01:39.512Z,12.60
2019-03-29T22:04:08.175Z,12.50
2019-03-29T22:06:36.718Z,12.50
2019-03-29T22:09:07.498Z,12.50
2019-03-29T22:11:36.019Z,12.50
2019-03-29T22:14:04.674Z,12.50
2019-03-29T22:16:33.323Z,12.40
2019-03-29T22:19:01.887Z,12.40
2019-03-29T22:21:30.383Z,12.40
2019-03-29T22:23:58.847Z,12.30
2019-03-29T22:26:27.358Z,12.30
2019-03-29T22:28:56.052Z,12.30
2019-03-29T22:31:24.559Z,12.30
2019-03-29T22:33:53.008Z,12.20
2019-03-29T22:36:21.566Z,12.20
2019-03-29T22:38:50.169Z,12.10
2019-03-29T22:41:18.704Z,12.10
2019-03-29T22:43:47.436Z,12.00
2019-03-29T22:46:16.006Z,11.80
2019-03-29T22:48:52.175Z,11.20
2019-03-29T22:51:15.045Z,10.90
2019-03-29T22:53:43.490Z,10.60
2019-03-29T22:56:12.113Z,10.40
2019-03-29T22:58:40.803Z,10.30
2019-03-29T23:01:09.387Z,10.30
2019-03-29T23:03:37.938Z,10.20
2019-03-29T23:06:06.489Z,10.20
2019-03-29T23:08:34.945Z,10.00
2019-03-29T23:11:03.799Z,10.00
2019-03-29T23:13:34.300Z,10.00
2019-03-29T23:16:02.738Z,10.00
2019-03-29T23:18:31.204Z,10.00
2019-03-29T23:20:59.761Z,9.90
2019-03-29T23:23:28.200Z,9.80
2019-03-29T23:25:56.663Z,9.80
2019-03-29T23:28:26.261Z,9.80
2019-03-29T23:30:54.849Z,9.70
2019-03-29T23:33:23.715Z,9.70
2019-03-29T23:35:52.213Z,9.60
2019-03-29T23:38:20.822Z,9.70
2019-03-29T23:40:49.263Z,9.60
2019-03-29T23:43:17.822Z,9.60
2019-03-29T23:45:46.292Z,9.50
2019-03-29T23:48:14.821Z,9.30
2019-03-29T23:50:43.252Z,9.30
2019-03-29T23:53:11.869Z,9.40
2019-03-29T23:55:40.353Z,9.40
2019-03-29T23:58:08.834Z,9.50
